Terminal Aerodrome Forecast
Issued by NWS

Home | Current Version | Previous Version | Text Only | Print | Product List | Glossary On
Versions: 1 2 3 4 5 6 7 8 9 10 11 12 13 14 15 16 17
863
FTUS44 KBMX 271123
TAFEET
TAF
KEET 271123Z 2712/2812 18005KT P6SM BKN015 OVC025
     FM271600 18008G16KT P6SM OVC025
     FM271900 20011G18KT P6SM VCTS BKN050CB
      TEMPO 2722/2802 2SM TSRA BKN025CB OVC050
     FM280600 22007KT 6SM BR OVC015=

USA.gov is the U.S. government's official web portal to all federal, state and local government web resources and services.